sensor_id;sensor_type;location;lat;lon;timestamp;P1;durP1;ratioP1;P2;durP2;ratioP2
16516;SDS011;8371;52.272;9.746;2022-09-28T00:03:45;2.87;;;2.77;;
16516;SDS011;8371;52.272;9.746;2022-09-28T00:06:13;3.97;;;3.77;;
16516;SDS011;8371;52.272;9.746;2022-09-28T00:08:40;3.77;;;3.67;;
16516;SDS011;8371;52.272;9.746;2022-09-28T00:11:06;3.30;;;3.20;;
16516;SDS011;8371;52.272;9.746;2022-09-28T00:13:36;3.57;;;3.47;;
16516;SDS011;8371;52.272;9.746;2022-09-28T00:16:02;3.60;;;3.50;;
16516;SDS011;8371;52.272;9.746;2022-09-28T00:18:30;3.53;;;3.43;;
16516;SDS011;8371;52.272;9.746;2022-09-28T00:21:00;4.10;;;3.90;;
16516;SDS011;8371;52.272;9.746;2022-09-28T00:23:30;3.90;;;3.80;;
16516;SDS011;8371;52.272;9.746;2022-09-28T00:26:00;3.60;;;3.50;;
16516;SDS011;8371;52.272;9.746;2022-09-28T00:28:28;3.93;;;3.83;;
16516;SDS011;8371;52.272;9.746;2022-09-28T00:30:54;4.30;;;4.10;;
16516;SDS011;8371;52.272;9.746;2022-09-28T00:33:20;4.13;;;4.03;;
16516;SDS011;8371;52.272;9.746;2022-09-28T00:35:53;3.47;;;3.37;;
16516;SDS011;8371;52.272;9.746;2022-09-28T00:38:27;3.80;;;3.70;;
16516;SDS011;8371;52.272;9.746;2022-09-28T00:40:53;3.27;;;3.07;;
16516;SDS011;8371;52.272;9.746;2022-09-28T00:43:20;3.77;;;3.60;;
16516;SDS011;8371;52.272;9.746;2022-09-28T00:46:00;3.83;;;3.53;;
16516;SDS011;8371;52.272;9.746;2022-09-28T00:48:34;3.13;;;3.03;;
16516;SDS011;8371;52.272;9.746;2022-09-28T00:51:03;3.00;;;2.90;;
16516;SDS011;8371;52.272;9.746;2022-09-28T00:53:31;2.93;;;2.83;;
16516;SDS011;8371;52.272;9.746;2022-09-28T00:56:02;2.77;;;2.57;;
16516;SDS011;8371;52.272;9.746;2022-09-28T00:58:37;2.87;;;2.77;;
16516;SDS011;8371;52.272;9.746;2022-09-28T01:01:00;2.50;;;2.40;;
16516;SDS011;8371;52.272;9.746;2022-09-28T01:03:26;2.47;;;2.47;;
16516;SDS011;8371;52.272;9.746;2022-09-28T01:05:54;2.23;;;2.10;;
16516;SDS011;8371;52.272;9.746;2022-09-28T01:08:22;2.23;;;2.13;;
16516;SDS011;8371;52.272;9.746;2022-09-28T01:10:51;2.30;;;2.30;;
16516;SDS011;8371;52.272;9.746;2022-09-28T01:13:18;2.30;;;2.20;;
16516;SDS011;8371;52.272;9.746;2022-09-28T01:15:48;1.87;;;1.87;;
16516;SDS011;8371;52.272;9.746;2022-09-28T01:21:19;1.30;;;1.30;;
16516;SDS011;8371;52.272;9.746;2022-09-28T01:26:40;2.00;;;2.00;;
16516;SDS011;8371;52.272;9.746;2022-09-28T01:31:52;1.83;;;1.83;;
16516;SDS011;8371;52.272;9.746;2022-09-28T01:34:29;2.37;;;2.17;;
16516;SDS011;8371;52.272;9.746;2022-09-28T01:37:03;2.00;;;1.90;;
16516;SDS011;8371;52.272;9.746;2022-09-28T01:39:33;2.40;;;2.30;;
16516;SDS011;8371;52.272;9.746;2022-09-28T01:42:09;2.03;;;2.03;;
16516;SDS011;8371;52.272;9.746;2022-09-28T01:44:43;2.37;;;2.27;;
16516;SDS011;8371;52.272;9.746;2022-09-28T01:47:12;2.33;;;2.23;;
16516;SDS011;8371;52.272;9.746;2022-09-28T01:49:42;1.90;;;1.90;;
16516;SDS011;8371;52.272;9.746;2022-09-28T01:52:13;1.67;;;1.57;;
16516;SDS011;8371;52.272;9.746;2022-09-28T01:54:41;1.83;;;1.80;;
16516;SDS011;8371;52.272;9.746;2022-09-28T01:57:22;1.87;;;1.87;;
16516;SDS011;8371;52.272;9.746;2022-09-28T01:59:58;1.97;;;1.87;;
16516;SDS011;8371;52.272;9.746;2022-09-28T02:02:35;2.07;;;1.97;;
16516;SDS011;8371;52.272;9.746;2022-09-28T02:05:06;2.00;;;1.90;;
16516;SDS011;8371;52.272;9.746;2022-09-28T02:07:39;2.40;;;1.87;;
16516;SDS011;8371;52.272;9.746;2022-09-28T02:10:09;1.50;;;1.50;;
16516;SDS011;8371;52.272;9.746;2022-09-28T02:12:41;1.53;;;1.53;;
16516;SDS011;8371;52.272;9.746;2022-09-28T02:15:17;1.67;;;1.67;;
16516;SDS011;8371;52.272;9.746;2022-09-28T02:17:47;2.00;;;1.90;;
16516;SDS011;8371;52.272;9.746;2022-09-28T02:20:14;1.70;;;1.70;;
16516;SDS011;8371;52.272;9.746;2022-09-28T02:22:41;1.50;;;1.50;;
16516;SDS011;8371;52.272;9.746;2022-09-28T02:25:16;2.00;;;1.90;;
16516;SDS011;8371;52.272;9.746;2022-09-28T02:27:53;1.63;;;1.53;;
16516;SDS011;8371;52.272;9.746;2022-09-28T02:30:28;1.40;;;1.30;;
16516;SDS011;8371;52.272;9.746;2022-09-28T02:32:55;1.33;;;1.33;;
16516;SDS011;8371;52.272;9.746;2022-09-28T02:35:26;1.23;;;1.23;;
16516;SDS011;8371;52.272;9.746;2022-09-28T02:37:52;1.60;;;1.60;;
16516;SDS011;8371;52.272;9.746;2022-09-28T02:40:20;1.80;;;1.80;;
16516;SDS011;8371;52.272;9.746;2022-09-28T02:42:52;1.40;;;1.40;;
16516;SDS011;8371;52.272;9.746;2022-09-28T02:45:35;1.73;;;1.50;;
16516;SDS011;8371;52.272;9.746;2022-09-28T02:48:13;1.40;;;1.40;;
16516;SDS011;8371;52.272;9.746;2022-09-28T02:51:04;2.13;;;2.00;;
16516;SDS011;8371;52.272;9.746;2022-09-28T02:53:56;1.60;;;1.60;;
16516;SDS011;8371;52.272;9.746;2022-09-28T02:56:47;1.23;;;1.23;;
16516;SDS011;8371;52.272;9.746;2022-09-28T02:59:22;1.77;;;1.77;;
16516;SDS011;8371;52.272;9.746;2022-09-28T03:02:05;1.80;;;1.80;;
16516;SDS011;8371;52.272;9.746;2022-09-28T03:04:36;2.00;;;2.00;;
16516;SDS011;8371;52.272;9.746;2022-09-28T03:07:12;1.60;;;1.50;;
16516;SDS011;8371;52.272;9.746;2022-09-28T03:09:41;1.67;;;1.67;;
16516;SDS011;8371;52.272;9.746;2022-09-28T03:12:20;1.63;;;1.63;;
16516;SDS011;8371;52.272;9.746;2022-09-28T03:15:04;1.40;;;1.40;;
16516;SDS011;8371;52.272;9.746;2022-09-28T03:17:19;2.50;;;1.80;;
16516;SDS011;8371;52.272;9.746;2022-09-28T03:19:44;1.43;;;1.43;;
16516;SDS011;8371;52.272;9.746;2022-09-28T03:22:10;1.67;;;1.67;;
16516;SDS011;8371;52.272;9.746;2022-09-28T03:24:36;1.93;;;1.90;;
16516;SDS011;8371;52.272;9.746;2022-09-28T03:27:01;2.00;;;1.90;;
16516;SDS011;8371;52.272;9.746;2022-09-28T03:29:27;1.80;;;1.80;;
16516;SDS011;8371;52.272;9.746;2022-09-28T03:31:55;1.77;;;1.77;;
16516;SDS011;8371;52.272;9.746;2022-09-28T03:34:20;1.90;;;1.90;;
16516;SDS011;8371;52.272;9.746;2022-09-28T03:36:46;1.83;;;1.73;;
16516;SDS011;8371;52.272;9.746;2022-09-28T03:39:12;1.83;;;1.73;;
16516;SDS011;8371;52.272;9.746;2022-09-28T03:41:37;1.70;;;1.70;;
16516;SDS011;8371;52.272;9.746;2022-09-28T03:44:03;1.67;;;1.60;;
16516;SDS011;8371;52.272;9.746;2022-09-28T03:46:29;1.60;;;1.60;;
16516;SDS011;8371;52.272;9.746;2022-09-28T03:48:55;2.10;;;2.00;;
16516;SDS011;8371;52.272;9.746;2022-09-28T03:51:22;1.50;;;1.50;;
16516;SDS011;8371;52.272;9.746;2022-09-28T03:53:48;1.70;;;1.70;;
16516;SDS011;8371;52.272;9.746;2022-09-28T03:56:14;2.33;;;1.80;;
16516;SDS011;8371;52.272;9.746;2022-09-28T03:58:40;1.57;;;1.57;;
16516;SDS011;8371;52.272;9.746;2022-09-28T04:01:07;1.83;;;1.83;;
16516;SDS011;8371;52.272;9.746;2022-09-28T04:03:36;1.73;;;1.73;;
16516;SDS011;8371;52.272;9.746;2022-09-28T04:06:02;1.90;;;1.90;;
16516;SDS011;8371;52.272;9.746;2022-09-28T04:08:28;2.00;;;1.90;;
16516;SDS011;8371;52.272;9.746;2022-09-28T04:10:57;2.03;;;1.93;;
16516;SDS011;8371;52.272;9.746;2022-09-28T04:13:23;1.97;;;1.97;;
16516;SDS011;8371;52.272;9.746;2022-09-28T04:15:53;2.37;;;2.27;;
16516;SDS011;8371;52.272;9.746;2022-09-28T04:18:20;2.00;;;2.00;;
16516;SDS011;8371;52.272;9.746;2022-09-28T04:20:46;2.20;;;2.00;;
16516;SDS011;8371;52.272;9.746;2022-09-28T04:23:13;2.07;;;2.00;;
16516;SDS011;8371;52.272;9.746;2022-09-28T04:25:39;1.90;;;1.87;;
16516;SDS011;8371;52.272;9.746;2022-09-28T04:28:05;2.37;;;2.27;;
16516;SDS011;8371;52.272;9.746;2022-09-28T04:30:50;2.10;;;2.10;;
16516;SDS011;8371;52.272;9.746;2022-09-28T04:33:16;2.33;;;2.23;;
16516;SDS011;8371;52.272;9.746;2022-09-28T04:35:42;1.93;;;1.93;;
16516;SDS011;8371;52.272;9.746;2022-09-28T04:38:07;2.77;;;2.10;;
16516;SDS011;8371;52.272;9.746;2022-09-28T04:40:33;1.73;;;1.73;;
16516;SDS011;8371;52.272;9.746;2022-09-28T04:42:59;2.40;;;2.30;;
16516;SDS011;8371;52.272;9.746;2022-09-28T04:45:24;1.90;;;1.90;;
16516;SDS011;8371;52.272;9.746;2022-09-28T04:47:51;2.13;;;2.13;;
16516;SDS011;8371;52.272;9.746;2022-09-28T04:50:16;2.00;;;1.97;;
16516;SDS011;8371;52.272;9.746;2022-09-28T04:52:42;1.80;;;1.80;;
16516;SDS011;8371;52.272;9.746;2022-09-28T04:55:10;2.33;;;2.23;;
16516;SDS011;8371;52.272;9.746;2022-09-28T04:57:37;2.27;;;2.17;;
16516;SDS011;8371;52.272;9.746;2022-09-28T05:00:03;2.33;;;2.23;;
16516;SDS011;8371;52.272;9.746;2022-09-28T05:02:29;2.43;;;2.33;;
16516;SDS011;8371;52.272;9.746;2022-09-28T05:04:55;2.30;;;2.20;;
16516;SDS011;8371;52.272;9.746;2022-09-28T05:07:23;2.17;;;2.17;;
16516;SDS011;8371;52.272;9.746;2022-09-28T05:09:49;2.37;;;2.27;;
16516;SDS011;8371;52.272;9.746;2022-09-28T05:12:15;2.53;;;2.43;;
16516;SDS011;8371;52.272;9.746;2022-09-28T05:14:41;2.50;;;2.40;;
16516;SDS011;8371;52.272;9.746;2022-09-28T05:17:06;2.13;;;2.07;;
16516;SDS011;8371;52.272;9.746;2022-09-28T05:19:34;2.00;;;2.00;;
16516;SDS011;8371;52.272;9.746;2022-09-28T05:22:00;2.23;;;2.17;;
16516;SDS011;8371;52.272;9.746;2022-09-28T05:24:33;2.70;;;2.50;;
16516;SDS011;8371;52.272;9.746;2022-09-28T05:26:56;2.10;;;2.00;;
16516;SDS011;8371;52.272;9.746;2022-09-28T05:29:21;2.60;;;2.50;;
16516;SDS011;8371;52.272;9.746;2022-09-28T05:31:47;1.73;;;1.73;;
16516;SDS011;8371;52.272;9.746;2022-09-28T05:34:13;2.40;;;2.30;;
16516;SDS011;8371;52.272;9.746;2022-09-28T05:36:39;2.37;;;2.27;;
16516;SDS011;8371;52.272;9.746;2022-09-28T05:39:07;2.07;;;1.97;;
16516;SDS011;8371;52.272;9.746;2022-09-28T05:41:34;3.00;;;1.90;;
16516;SDS011;8371;52.272;9.746;2022-09-28T05:44:00;1.50;;;1.50;;
16516;SDS011;8371;52.272;9.746;2022-09-28T05:46:26;1.80;;;1.80;;
16516;SDS011;8371;52.272;9.746;2022-09-28T05:48:51;2.17;;;2.07;;
16516;SDS011;8371;52.272;9.746;2022-09-28T05:51:18;1.70;;;1.70;;
16516;SDS011;8371;52.272;9.746;2022-09-28T05:53:44;2.00;;;1.90;;
16516;SDS011;8371;52.272;9.746;2022-09-28T05:56:10;2.00;;;1.90;;
16516;SDS011;8371;52.272;9.746;2022-09-28T05:58:35;2.27;;;2.10;;
16516;SDS011;8371;52.272;9.746;2022-09-28T06:01:01;1.87;;;1.87;;
16516;SDS011;8371;52.272;9.746;2022-09-28T06:03:27;1.87;;;1.83;;
16516;SDS011;8371;52.272;9.746;2022-09-28T06:05:52;1.80;;;1.67;;
16516;SDS011;8371;52.272;9.746;2022-09-28T06:08:18;1.67;;;1.60;;
16516;SDS011;8371;52.272;9.746;2022-09-28T06:10:44;1.80;;;1.80;;
16516;SDS011;8371;52.272;9.746;2022-09-28T06:13:10;1.40;;;1.40;;
16516;SDS011;8371;52.272;9.746;2022-09-28T06:15:36;1.60;;;1.60;;
16516;SDS011;8371;52.272;9.746;2022-09-28T06:18:08;1.83;;;1.77;;
16516;SDS011;8371;52.272;9.746;2022-09-28T06:20:36;1.70;;;1.70;;
16516;SDS011;8371;52.272;9.746;2022-09-28T06:23:05;1.57;;;1.57;;
16516;SDS011;8371;52.272;9.746;2022-09-28T06:25:32;1.70;;;1.60;;
16516;SDS011;8371;52.272;9.746;2022-09-28T06:27:59;2.57;;;2.50;;
16516;SDS011;8371;52.272;9.746;2022-09-28T06:30:27;2.30;;;2.20;;
16516;SDS011;8371;52.272;9.746;2022-09-28T06:32:55;1.63;;;1.60;;
16516;SDS011;8371;52.272;9.746;2022-09-28T06:35:22;1.60;;;1.60;;
16516;SDS011;8371;52.272;9.746;2022-09-28T06:37:50;1.60;;;1.60;;
16516;SDS011;8371;52.272;9.746;2022-09-28T06:40:17;1.70;;;1.70;;
16516;SDS011;8371;52.272;9.746;2022-09-28T06:42:43;1.40;;;1.40;;
16516;SDS011;8371;52.272;9.746;2022-09-28T06:45:09;2.00;;;1.60;;
16516;SDS011;8371;52.272;9.746;2022-09-28T06:47:35;1.60;;;1.50;;
16516;SDS011;8371;52.272;9.746;2022-09-28T06:50:02;1.60;;;1.60;;
16516;SDS011;8371;52.272;9.746;2022-09-28T06:52:31;1.73;;;1.63;;
16516;SDS011;8371;52.272;9.746;2022-09-28T06:54:57;1.50;;;1.50;;
16516;SDS011;8371;52.272;9.746;2022-09-28T06:57:22;1.50;;;1.40;;
16516;SDS011;8371;52.272;9.746;2022-09-28T06:59:48;1.30;;;1.30;;
16516;SDS011;8371;52.272;9.746;2022-09-28T07:02:14;2.13;;;2.13;;
16516;SDS011;8371;52.272;9.746;2022-09-28T07:04:40;1.67;;;1.67;;
16516;SDS011;8371;52.272;9.746;2022-09-28T07:07:09;0.70;;;0.70;;
16516;SDS011;8371;52.272;9.746;2022-09-28T07:09:35;0.50;;;0.50;;
16516;SDS011;8371;52.272;9.746;2022-09-28T07:12:02;0.50;;;0.50;;
16516;SDS011;8371;52.272;9.746;2022-09-28T07:14:32;0.50;;;0.50;;
16516;SDS011;8371;52.272;9.746;2022-09-28T07:16:58;0.30;;;0.30;;
16516;SDS011;8371;52.272;9.746;2022-09-28T07:19:24;0.40;;;0.40;;
16516;SDS011;8371;52.272;9.746;2022-09-28T07:21:53;0.40;;;0.40;;
16516;SDS011;8371;52.272;9.746;2022-09-28T07:24:18;0.50;;;0.50;;
16516;SDS011;8371;52.272;9.746;2022-09-28T07:26:44;0.70;;;0.70;;
16516;SDS011;8371;52.272;9.746;2022-09-28T07:29:10;0.80;;;0.80;;
16516;SDS011;8371;52.272;9.746;2022-09-28T07:31:37;0.80;;;0.80;;
16516;SDS011;8371;52.272;9.746;2022-09-28T07:34:03;0.67;;;0.67;;
16516;SDS011;8371;52.272;9.746;2022-09-28T07:36:29;1.10;;;1.10;;
16516;SDS011;8371;52.272;9.746;2022-09-28T07:38:57;0.97;;;0.97;;
16516;SDS011;8371;52.272;9.746;2022-09-28T07:41:22;1.03;;;1.03;;
16516;SDS011;8371;52.272;9.746;2022-09-28T07:43:50;0.80;;;0.80;;
16516;SDS011;8371;52.272;9.746;2022-09-28T07:46:15;0.83;;;0.83;;
16516;SDS011;8371;52.272;9.746;2022-09-28T07:48:42;0.90;;;0.90;;
16516;SDS011;8371;52.272;9.746;2022-09-28T07:51:08;0.47;;;0.47;;
16516;SDS011;8371;52.272;9.746;2022-09-28T07:53:34;0.70;;;0.70;;
16516;SDS011;8371;52.272;9.746;2022-09-28T07:56:03;0.60;;;0.60;;
16516;SDS011;8371;52.272;9.746;2022-09-28T07:58:32;0.40;;;0.40;;
16516;SDS011;8371;52.272;9.746;2022-09-28T08:01:02;0.40;;;0.40;;
16516;SDS011;8371;52.272;9.746;2022-09-28T08:03:28;0.40;;;0.40;;
16516;SDS011;8371;52.272;9.746;2022-09-28T08:05:57;0.30;;;0.30;;
16516;SDS011;8371;52.272;9.746;2022-09-28T08:08:24;0.57;;;0.57;;
16516;SDS011;8371;52.272;9.746;2022-09-28T08:10:49;0.43;;;0.43;;
16516;SDS011;8371;52.272;9.746;2022-09-28T08:13:17;0.30;;;0.30;;
16516;SDS011;8371;52.272;9.746;2022-09-28T08:15:44;0.50;;;0.50;;
16516;SDS011;8371;52.272;9.746;2022-09-28T08:18:18;0.30;;;0.30;;
16516;SDS011;8371;52.272;9.746;2022-09-28T08:20:44;0.40;;;0.40;;
16516;SDS011;8371;52.272;9.746;2022-09-28T08:23:28;1.90;;;0.57;;
16516;SDS011;8371;52.272;9.746;2022-09-28T08:25:54;0.50;;;0.50;;
16516;SDS011;8371;52.272;9.746;2022-09-28T08:28:20;0.47;;;0.47;;
16516;SDS011;8371;52.272;9.746;2022-09-28T08:30:48;0.50;;;0.50;;
16516;SDS011;8371;52.272;9.746;2022-09-28T08:33:14;0.50;;;0.50;;
16516;SDS011;8371;52.272;9.746;2022-09-28T08:35:47;0.53;;;0.53;;
16516;SDS011;8371;52.272;9.746;2022-09-28T08:38:22;0.60;;;0.60;;
16516;SDS011;8371;52.272;9.746;2022-09-28T08:40:54;0.90;;;0.90;;
16516;SDS011;8371;52.272;9.746;2022-09-28T08:46:33;1.27;;;1.27;;
16516;SDS011;8371;52.272;9.746;2022-09-28T08:49:09;1.30;;;1.30;;
16516;SDS011;8371;52.272;9.746;2022-09-28T08:51:44;1.50;;;1.50;;
16516;SDS011;8371;52.272;9.746;2022-09-28T08:54:24;1.37;;;1.37;;
16516;SDS011;8371;52.272;9.746;2022-09-28T08:57:09;1.43;;;1.43;;
16516;SDS011;8371;52.272;9.746;2022-09-28T08:59:42;1.50;;;1.37;;
16516;SDS011;8371;52.272;9.746;2022-09-28T09:02:17;1.63;;;1.53;;
16516;SDS011;8371;52.272;9.746;2022-09-28T09:04:43;1.80;;;1.80;;
16516;SDS011;8371;52.272;9.746;2022-09-28T09:07:12;1.43;;;1.43;;
16516;SDS011;8371;52.272;9.746;2022-09-28T09:18:19;1.33;;;1.33;;
16516;SDS011;8371;52.272;9.746;2022-09-28T09:21:15;1.10;;;1.10;;
16516;SDS011;8371;52.272;9.746;2022-09-28T09:23:56;0.73;;;0.73;;
16516;SDS011;8371;52.272;9.746;2022-09-28T09:29:12;1.00;;;1.00;;
16516;SDS011;8371;52.272;9.746;2022-09-28T09:31:48;1.20;;;1.20;;
16516;SDS011;8371;52.272;9.746;2022-09-28T09:40:02;1.20;;;1.20;;
16516;SDS011;8371;52.272;9.746;2022-09-28T09:47:55;1.00;;;1.00;;
16516;SDS011;8371;52.272;9.746;2022-09-28T09:53:08;1.30;;;1.30;;
16516;SDS011;8371;52.272;9.746;2022-09-28T09:55:44;1.30;;;1.30;;
16516;SDS011;8371;52.272;9.746;2022-09-28T10:00:44;1.40;;;1.40;;
16516;SDS011;8371;52.272;9.746;2022-09-28T10:03:26;1.77;;;1.77;;
16516;SDS011;8371;52.272;9.746;2022-09-28T10:05:56;1.70;;;1.60;;
16516;SDS011;8371;52.272;9.746;2022-09-28T10:08:46;1.43;;;1.43;;
16516;SDS011;8371;52.272;9.746;2022-09-28T10:11:28;1.40;;;1.40;;
16516;SDS011;8371;52.272;9.746;2022-09-28T10:13:53;1.47;;;1.47;;
16516;SDS011;8371;52.272;9.746;2022-09-28T10:16:19;1.40;;;1.40;;
16516;SDS011;8371;52.272;9.746;2022-09-28T10:18:45;1.20;;;1.20;;
16516;SDS011;8371;52.272;9.746;2022-09-28T10:21:14;1.20;;;1.20;;
16516;SDS011;8371;52.272;9.746;2022-09-28T10:23:42;1.17;;;1.17;;
16516;SDS011;8371;52.272;9.746;2022-09-28T10:26:11;1.13;;;1.13;;
16516;SDS011;8371;52.272;9.746;2022-09-28T10:28:46;0.83;;;0.83;;
16516;SDS011;8371;52.272;9.746;2022-09-28T10:34:06;1.07;;;1.07;;
16516;SDS011;8371;52.272;9.746;2022-09-28T10:39:27;1.10;;;1.10;;
16516;SDS011;8371;52.272;9.746;2022-09-28T10:42:00;1.50;;;1.50;;
16516;SDS011;8371;52.272;9.746;2022-09-28T10:44:29;1.40;;;1.40;;
16516;SDS011;8371;52.272;9.746;2022-09-28T10:46:58;1.80;;;1.80;;
16516;SDS011;8371;52.272;9.746;2022-09-28T10:49:25;2.00;;;2.00;;
16516;SDS011;8371;52.272;9.746;2022-09-28T10:51:54;1.87;;;1.87;;
16516;SDS011;8371;52.272;9.746;2022-09-28T10:54:26;2.60;;;2.50;;
16516;SDS011;8371;52.272;9.746;2022-09-28T10:56:54;2.43;;;2.33;;
16516;SDS011;8371;52.272;9.746;2022-09-28T10:59:42;2.07;;;2.07;;
16516;SDS011;8371;52.272;9.746;2022-09-28T11:04:48;2.07;;;2.07;;
16516;SDS011;8371;52.272;9.746;2022-09-28T11:07:16;1.80;;;1.80;;
16516;SDS011;8371;52.272;9.746;2022-09-28T11:09:47;2.27;;;2.27;;
16516;SDS011;8371;52.272;9.746;2022-09-28T11:12:15;1.97;;;1.73;;
16516;SDS011;8371;52.272;9.746;2022-09-28T11:14:47;1.40;;;1.40;;
16516;SDS011;8371;52.272;9.746;2022-09-28T11:17:17;1.50;;;1.50;;
16516;SDS011;8371;52.272;9.746;2022-09-28T11:20:01;1.20;;;1.20;;
16516;SDS011;8371;52.272;9.746;2022-09-28T11:25:12;1.10;;;1.10;;
16516;SDS011;8371;52.272;9.746;2022-09-28T11:33:01;1.10;;;1.10;;
16516;SDS011;8371;52.272;9.746;2022-09-28T11:35:44;0.90;;;0.90;;
16516;SDS011;8371;52.272;9.746;2022-09-28T11:38:30;1.00;;;1.00;;
16516;SDS011;8371;52.272;9.746;2022-09-28T11:41:15;1.20;;;1.20;;
16516;SDS011;8371;52.272;9.746;2022-09-28T11:44:00;0.90;;;0.90;;
16516;SDS011;8371;52.272;9.746;2022-09-28T11:54:47;0.60;;;0.60;;
16516;SDS011;8371;52.272;9.746;2022-09-28T11:57:21;0.50;;;0.50;;
16516;SDS011;8371;52.272;9.746;2022-09-28T11:59:54;0.23;;;0.23;;
16516;SDS011;8371;52.272;9.746;2022-09-28T12:02:29;0.60;;;0.60;;
16516;SDS011;8371;52.272;9.746;2022-09-28T12:07:55;0.60;;;0.60;;
16516;SDS011;8371;52.272;9.746;2022-09-28T12:10:31;0.73;;;0.73;;
16516;SDS011;8371;52.272;9.746;2022-09-28T12:13:09;0.80;;;0.80;;
16516;SDS011;8371;52.272;9.746;2022-09-28T12:16:02;1.00;;;1.00;;
16516;SDS011;8371;52.272;9.746;2022-09-28T12:18:44;0.90;;;0.90;;
16516;SDS011;8371;52.272;9.746;2022-09-28T12:24:18;0.70;;;0.70;;
16516;SDS011;8371;52.272;9.746;2022-09-28T12:27:03;0.50;;;0.50;;
16516;SDS011;8371;52.272;9.746;2022-09-28T12:30:01;0.50;;;0.50;;
16516;SDS011;8371;52.272;9.746;2022-09-28T12:32:41;0.40;;;0.40;;
16516;SDS011;8371;52.272;9.746;2022-09-28T12:35:18;0.30;;;0.30;;
16516;SDS011;8371;52.272;9.746;2022-09-28T12:38:03;0.40;;;0.40;;
16516;SDS011;8371;52.272;9.746;2022-09-28T12:40:46;0.40;;;0.40;;
16516;SDS011;8371;52.272;9.746;2022-09-28T12:49:37;0.30;;;0.30;;
16516;SDS011;8371;52.272;9.746;2022-09-28T12:51:33;0.40;;;0.40;;
16516;SDS011;8371;52.272;9.746;2022-09-28T12:57:09;0.40;;;0.40;;
16516;SDS011;8371;52.272;9.746;2022-09-28T13:02:33;0.40;;;0.40;;
16516;SDS011;8371;52.272;9.746;2022-09-28T13:07:59;0.40;;;0.40;;
16516;SDS011;8371;52.272;9.746;2022-09-28T13:13:24;0.37;;;0.37;;
16516;SDS011;8371;52.272;9.746;2022-09-28T13:16:13;0.20;;;0.20;;
16516;SDS011;8371;52.272;9.746;2022-09-28T13:19:00;0.13;;;0.13;;
16516;SDS011;8371;52.272;9.746;2022-09-28T13:24:15;0.20;;;0.20;;
16516;SDS011;8371;52.272;9.746;2022-09-28T13:26:43;0.30;;;0.30;;
16516;SDS011;8371;52.272;9.746;2022-09-28T13:29:12;0.20;;;0.20;;
16516;SDS011;8371;52.272;9.746;2022-09-28T13:31:44;0.30;;;0.30;;
16516;SDS011;8371;52.272;9.746;2022-09-28T13:34:15;0.30;;;0.30;;
16516;SDS011;8371;52.272;9.746;2022-09-28T13:36:44;0.63;;;0.63;;
16516;SDS011;8371;52.272;9.746;2022-09-28T13:42:00;0.50;;;0.50;;
16516;SDS011;8371;52.272;9.746;2022-09-28T13:44:32;0.47;;;0.47;;
16516;SDS011;8371;52.272;9.746;2022-09-28T13:52:34;0.70;;;0.70;;
16516;SDS011;8371;52.272;9.746;2022-09-28T13:58:20;0.47;;;0.47;;
16516;SDS011;8371;52.272;9.746;2022-09-28T14:00:48;0.60;;;0.60;;
16516;SDS011;8371;52.272;9.746;2022-09-28T14:03:24;0.30;;;0.30;;
16516;SDS011;8371;52.272;9.746;2022-09-28T14:06:05;0.30;;;0.30;;
16516;SDS011;8371;52.272;9.746;2022-09-28T14:11:41;0.30;;;0.30;;
16516;SDS011;8371;52.272;9.746;2022-09-28T14:16:42;0.33;;;0.33;;
16516;SDS011;8371;52.272;9.746;2022-09-28T14:19:14;0.53;;;0.53;;
16516;SDS011;8371;52.272;9.746;2022-09-28T14:32:51;0.70;;;0.70;;
16516;SDS011;8371;52.272;9.746;2022-09-28T14:35:26;0.60;;;0.60;;
16516;SDS011;8371;52.272;9.746;2022-09-28T14:38:04;0.50;;;0.50;;
16516;SDS011;8371;52.272;9.746;2022-09-28T14:41:01;0.67;;;0.67;;
16516;SDS011;8371;52.272;9.746;2022-09-28T14:48:45;0.70;;;0.70;;
16516;SDS011;8371;52.272;9.746;2022-09-28T14:53:56;0.70;;;0.70;;
16516;SDS011;8371;52.272;9.746;2022-09-28T14:56:27;0.67;;;0.67;;
16516;SDS011;8371;52.272;9.746;2022-09-28T14:58:55;0.70;;;0.70;;
16516;SDS011;8371;52.272;9.746;2022-09-28T15:01:22;0.53;;;0.53;;
16516;SDS011;8371;52.272;9.746;2022-09-28T15:03:51;0.73;;;0.73;;
16516;SDS011;8371;52.272;9.746;2022-09-28T15:06:22;0.90;;;0.90;;
16516;SDS011;8371;52.272;9.746;2022-09-28T15:08:48;0.97;;;0.97;;
16516;SDS011;8371;52.272;9.746;2022-09-28T15:11:15;0.50;;;0.50;;
16516;SDS011;8371;52.272;9.746;2022-09-28T15:13:47;0.80;;;0.80;;
16516;SDS011;8371;52.272;9.746;2022-09-28T15:16:16;0.50;;;0.50;;
16516;SDS011;8371;52.272;9.746;2022-09-28T15:18:46;0.50;;;0.50;;
16516;SDS011;8371;52.272;9.746;2022-09-28T15:21:36;0.50;;;0.50;;
16516;SDS011;8371;52.272;9.746;2022-09-28T15:23:58;0.60;;;0.60;;
16516;SDS011;8371;52.272;9.746;2022-09-28T15:26:25;0.50;;;0.50;;
16516;SDS011;8371;52.272;9.746;2022-09-28T15:28:56;0.70;;;0.70;;
16516;SDS011;8371;52.272;9.746;2022-09-28T15:31:23;0.60;;;0.60;;
16516;SDS011;8371;52.272;9.746;2022-09-28T15:33:50;0.50;;;0.50;;
16516;SDS011;8371;52.272;9.746;2022-09-28T15:36:39;0.40;;;0.40;;
16516;SDS011;8371;52.272;9.746;2022-09-28T15:41:52;0.53;;;0.53;;
16516;SDS011;8371;52.272;9.746;2022-09-28T15:44:28;0.40;;;0.40;;
16516;SDS011;8371;52.272;9.746;2022-09-28T15:47:04;0.60;;;0.60;;
16516;SDS011;8371;52.272;9.746;2022-09-28T15:49:36;0.50;;;0.50;;
16516;SDS011;8371;52.272;9.746;2022-09-28T15:52:06;0.90;;;0.90;;
16516;SDS011;8371;52.272;9.746;2022-09-28T15:54:40;0.60;;;0.60;;
16516;SDS011;8371;52.272;9.746;2022-09-28T15:57:09;0.70;;;0.70;;
16516;SDS011;8371;52.272;9.746;2022-09-28T15:59:37;0.60;;;0.60;;
16516;SDS011;8371;52.272;9.746;2022-09-28T16:02:09;0.60;;;0.60;;
16516;SDS011;8371;52.272;9.746;2022-09-28T16:04:52;0.67;;;0.67;;
16516;SDS011;8371;52.272;9.746;2022-09-28T16:07:30;0.60;;;0.60;;
16516;SDS011;8371;52.272;9.746;2022-09-28T16:12:40;0.70;;;0.70;;
16516;SDS011;8371;52.272;9.746;2022-09-28T16:15:20;0.70;;;0.70;;
16516;SDS011;8371;52.272;9.746;2022-09-28T16:17:58;0.50;;;0.50;;
16516;SDS011;8371;52.272;9.746;2022-09-28T16:20:31;0.60;;;0.60;;
16516;SDS011;8371;52.272;9.746;2022-09-28T16:23:01;0.57;;;0.57;;
16516;SDS011;8371;52.272;9.746;2022-09-28T16:25:48;0.53;;;0.53;;
16516;SDS011;8371;52.272;9.746;2022-09-28T16:33:45;0.70;;;0.70;;
16516;SDS011;8371;52.272;9.746;2022-09-28T16:36:19;0.70;;;0.70;;
16516;SDS011;8371;52.272;9.746;2022-09-28T16:38:47;0.60;;;0.60;;
16516;SDS011;8371;52.272;9.746;2022-09-28T16:41:14;0.50;;;0.50;;
16516;SDS011;8371;52.272;9.746;2022-09-28T16:43:44;0.80;;;0.80;;
16516;SDS011;8371;52.272;9.746;2022-09-28T16:46:11;0.47;;;0.47;;
16516;SDS011;8371;52.272;9.746;2022-09-28T16:48:42;0.70;;;0.70;;
16516;SDS011;8371;52.272;9.746;2022-09-28T16:51:15;0.87;;;0.87;;
16516;SDS011;8371;52.272;9.746;2022-09-28T16:53:43;0.70;;;0.70;;
16516;SDS011;8371;52.272;9.746;2022-09-28T16:56:28;0.90;;;0.90;;
16516;SDS011;8371;52.272;9.746;2022-09-28T16:58:54;0.80;;;0.80;;
16516;SDS011;8371;52.272;9.746;2022-09-28T17:01:20;0.70;;;0.70;;
16516;SDS011;8371;52.272;9.746;2022-09-28T17:03:48;0.70;;;0.70;;
16516;SDS011;8371;52.272;9.746;2022-09-28T17:06:15;0.90;;;0.90;;
16516;SDS011;8371;52.272;9.746;2022-09-28T17:08:45;0.70;;;0.70;;
16516;SDS011;8371;52.272;9.746;2022-09-28T17:11:15;2.60;;;2.50;;
16516;SDS011;8371;52.272;9.746;2022-09-28T17:13:42;1.93;;;1.90;;
16516;SDS011;8371;52.272;9.746;2022-09-28T17:16:13;1.63;;;1.53;;
16516;SDS011;8371;52.272;9.746;2022-09-28T17:18:42;1.53;;;1.40;;
16516;SDS011;8371;52.272;9.746;2022-09-28T17:21:14;1.87;;;1.87;;
16516;SDS011;8371;52.272;9.746;2022-09-28T17:23:43;1.40;;;1.40;;
16516;SDS011;8371;52.272;9.746;2022-09-28T17:26:15;1.10;;;1.10;;
16516;SDS011;8371;52.272;9.746;2022-09-28T17:28:50;1.20;;;1.20;;
16516;SDS011;8371;52.272;9.746;2022-09-28T17:31:16;1.17;;;1.17;;
16516;SDS011;8371;52.272;9.746;2022-09-28T17:33:41;1.80;;;1.70;;
16516;SDS011;8371;52.272;9.746;2022-09-28T17:36:08;1.50;;;1.50;;
16516;SDS011;8371;52.272;9.746;2022-09-28T17:38:37;1.23;;;1.23;;
16516;SDS011;8371;52.272;9.746;2022-09-28T17:41:02;1.50;;;1.50;;